createdAt,value
2023-05-24T00:00:37.490Z,66.41
2023-05-24T00:03:05.076Z,66.28
2023-05-24T00:05:32.209Z,66.00
2023-05-24T00:07:59.943Z,66.22
2023-05-24T00:10:26.853Z,65.92
2023-05-24T00:12:53.678Z,66.45
2023-05-24T00:15:20.560Z,66.30
2023-05-24T00:17:47.553Z,66.63
2023-05-24T00:20:14.684Z,67.98
2023-05-24T00:22:42.327Z,67.45
2023-05-24T00:25:09.535Z,67.22
2023-05-24T00:27:37.320Z,67.09
2023-05-24T00:30:06.201Z,66.41
2023-05-24T00:32:33.405Z,66.38
2023-05-24T00:35:00.370Z,66.07
2023-05-24T00:37:27.478Z,66.17
2023-05-24T00:39:54.349Z,66.12
2023-05-24T00:42:21.207Z,65.75
2023-05-24T00:44:48.099Z,65.59
2023-05-24T00:47:16.063Z,65.79
2023-05-24T00:49:43.164Z,65.73
2023-05-24T00:52:10.297Z,65.86
2023-05-24T00:54:37.236Z,65.86
2023-05-24T00:57:04.402Z,65.91
2023-05-24T00:59:31.309Z,66.13
2023-05-24T01:01:58.246Z,65.72
2023-05-24T01:04:26.015Z,66.05
2023-05-24T01:07:26.842Z,66.11
2023-05-24T01:10:40.748Z,65.91
2023-05-24T01:13:26.106Z,65.36
2023-05-24T01:15:58.882Z,65.61
2023-05-24T01:18:48.816Z,65.81
2023-05-24T01:21:51.421Z,65.86
2023-05-24T01:24:44.429Z,65.62
2023-05-24T01:27:13.295Z,65.81
2023-05-24T01:29:41.096Z,65.50
2023-05-24T01:32:08.192Z,65.24
2023-05-24T01:34:35.311Z,65.21
2023-05-24T01:37:02.182Z,65.20
2023-05-24T01:39:29.851Z,65.12
2023-05-24T01:42:36.777Z,64.92
2023-05-24T01:45:25.917Z,64.73
2023-05-24T01:48:19.230Z,64.95
2023-05-24T01:50:53.424Z,64.93
2023-05-24T01:53:28.997Z,65.06
2023-05-24T01:55:57.429Z,64.87
2023-05-24T01:58:27.059Z,65.00
2023-05-24T02:00:54.276Z,65.27
2023-05-24T02:03:21.811Z,65.04
2023-05-24T02:05:49.077Z,64.95
2023-05-24T02:08:16.628Z,65.45
2023-05-24T02:10:43.932Z,65.07
2023-05-24T02:13:10.991Z,65.10
2023-05-24T02:15:37.912Z,64.84
2023-05-24T02:18:08.099Z,64.72
2023-05-24T02:20:37.076Z,64.67
2023-05-24T02:23:04.772Z,64.28
2023-05-24T02:25:32.800Z,64.66
2023-05-24T02:28:00.519Z,64.05
2023-05-24T02:30:27.609Z,63.78
2023-05-24T02:32:54.515Z,64.07
2023-05-24T02:35:21.709Z,64.15
2023-05-24T02:37:49.149Z,63.96
2023-05-24T02:40:16.190Z,64.66
2023-05-24T02:42:43.043Z,64.15
2023-05-24T02:45:10.383Z,64.47
2023-05-24T02:47:37.385Z,64.39
2023-05-24T02:50:04.716Z,64.86
2023-05-24T02:52:31.674Z,64.58
2023-05-24T02:54:58.552Z,64.80
2023-05-24T02:57:25.503Z,64.87
2023-05-24T02:59:52.938Z,65.03
2023-05-24T03:02:22.034Z,65.34
2023-05-24T03:04:48.933Z,65.06
2023-05-24T03:07:15.941Z,64.91
2023-05-24T03:09:43.109Z,65.01
2023-05-24T03:12:10.203Z,65.54
2023-05-24T03:14:37.044Z,65.46
2023-05-24T03:17:04.123Z,65.07
2023-05-24T03:19:31.021Z,65.67
2023-05-24T03:21:57.972Z,65.37
2023-05-24T03:24:26.036Z,65.63
2023-05-24T03:26:52.962Z,65.94
2023-05-24T03:29:19.874Z,65.74
2023-05-24T03:31:46.810Z,66.11
2023-05-24T03:34:13.689Z,66.03
2023-05-24T03:36:40.598Z,66.37
2023-05-24T03:39:07.859Z,66.52
2023-05-24T03:41:34.826Z,66.47
2023-05-24T03:44:01.753Z,66.22
2023-05-24T03:46:28.688Z,66.55
2023-05-24T03:48:55.730Z,65.96
2023-05-24T03:51:29.469Z,65.82
2023-05-24T03:53:57.484Z,65.84
2023-05-24T03:56:26.557Z,66.53
2023-05-24T03:58:53.724Z,65.96
2023-05-24T04:01:32.728Z,66.41
2023-05-24T04:04:01.708Z,65.85
2023-05-24T04:06:29.532Z,65.62
2023-05-24T04:09:01.171Z,65.44
2023-05-24T04:11:28.682Z,65.67
2023-05-24T04:13:57.134Z,65.08
2023-05-24T04:16:26.419Z,65.51
2023-05-24T04:18:56.708Z,65.46
2023-05-24T04:21:24.038Z,65.46
2023-05-24T04:23:51.096Z,65.73
2023-05-24T04:26:18.368Z,65.37
2023-05-24T04:28:48.471Z,65.35
2023-05-24T04:31:18.075Z,65.90
2023-05-24T04:33:44.973Z,65.59
2023-05-24T04:36:12.021Z,65.74
2023-05-24T04:38:40.949Z,65.39
2023-05-24T04:41:08.024Z,65.11
2023-05-24T04:43:35.091Z,64.99
2023-05-24T04:46:02.185Z,64.23
2023-05-24T04:48:29.355Z,63.75
2023-05-24T04:50:58.374Z,63.28
2023-05-24T04:53:25.726Z,63.17
2023-05-24T04:55:53.298Z,62.99
2023-05-24T04:58:20.268Z,62.98
2023-05-24T05:00:47.316Z,62.74
2023-05-24T05:03:14.385Z,62.94
2023-05-24T05:05:41.330Z,62.48
2023-05-24T05:08:08.188Z,62.62
2023-05-24T05:10:36.362Z,61.53
2023-05-24T05:13:03.550Z,61.14
2023-05-24T05:15:30.699Z,61.93
2023-05-24T05:17:57.693Z,61.56
2023-05-24T05:20:25.906Z,62.08
2023-05-24T05:22:52.899Z,61.73
2023-05-24T05:25:19.907Z,61.46
2023-05-24T05:27:46.828Z,61.54
2023-05-24T05:30:14.126Z,61.68
2023-05-24T05:32:41.279Z,62.86
2023-05-24T05:35:08.911Z,62.91
2023-05-24T05:37:35.962Z,63.97
2023-05-24T05:40:04.454Z,63.19
2023-05-24T05:42:31.340Z,61.97
2023-05-24T05:44:58.314Z,61.36
2023-05-24T05:47:25.249Z,60.82
2023-05-24T05:49:52.151Z,60.02
2023-05-24T05:52:19.038Z,58.61
2023-05-24T05:54:45.980Z,58.70
2023-05-24T05:57:12.993Z,57.90
2023-05-24T05:59:39.865Z,58.09
2023-05-24T06:02:07.431Z,56.98
2023-05-24T06:04:34.797Z,56.67
2023-05-24T06:07:01.799Z,56.15
2023-05-24T06:09:28.724Z,56.63
2023-05-24T06:11:55.655Z,55.95
2023-05-24T06:14:25.112Z,55.33
2023-05-24T06:16:54.387Z,55.49
2023-05-24T06:19:21.857Z,55.24
2023-05-24T06:21:50.573Z,53.86
2023-05-24T06:24:22.228Z,54.88
2023-05-24T06:26:51.915Z,57.37
2023-05-24T06:29:22.832Z,58.25
2023-05-24T06:31:50.951Z,59.68
2023-05-24T06:34:21.686Z,59.62
2023-05-24T06:36:50.939Z,59.49
2023-05-24T06:39:17.964Z,59.28
2023-05-24T06:41:46.509Z,58.84
2023-05-24T06:44:13.740Z,57.08
2023-05-24T06:46:40.948Z,56.87
2023-05-24T06:49:08.565Z,56.17
2023-05-24T06:51:35.975Z,55.86
2023-05-24T06:54:02.931Z,56.77
2023-05-24T06:56:30.003Z,56.68
2023-05-24T06:58:57.316Z,57.36
2023-05-24T07:01:24.234Z,56.07
2023-05-24T07:03:51.693Z,56.12
2023-05-24T07:06:18.784Z,55.22
2023-05-24T07:08:45.720Z,53.25
2023-05-24T07:11:12.656Z,53.62
2023-05-24T07:13:39.621Z,53.18
2023-05-24T07:16:07.099Z,53.26
2023-05-24T07:18:34.087Z,53.74
2023-05-24T07:21:01.185Z,53.66
2023-05-24T07:23:28.364Z,52.38
2023-05-24T07:25:55.326Z,52.35
2023-05-24T07:28:22.469Z,52.99
2023-05-24T07:30:49.622Z,54.39
2023-05-24T07:33:16.832Z,53.68
2023-05-24T07:35:45.807Z,53.60
2023-05-24T07:38:12.859Z,53.37
2023-05-24T07:40:39.821Z,52.16
2023-05-24T07:43:06.825Z,51.68
2023-05-24T07:45:34.149Z,51.67
2023-05-24T07:48:01.711Z,51.20
2023-05-24T07:50:29.440Z,52.22
2023-05-24T07:52:59.411Z,50.81
2023-05-24T07:55:27.932Z,51.23
2023-05-24T07:57:54.905Z,52.46
2023-05-24T08:00:23.108Z,52.31
2023-05-24T08:02:50.352Z,51.99
2023-05-24T08:05:18.202Z,51.96
2023-05-24T08:07:45.635Z,50.76
2023-05-24T08:10:13.891Z,49.88
2023-05-24T08:12:41.895Z,49.11
2023-05-24T08:15:09.395Z,49.47
2023-05-24T08:17:37.128Z,50.39
2023-05-24T08:20:13.833Z,49.61
2023-05-24T08:22:40.977Z,49.58
2023-05-24T08:25:08.730Z,49.06
2023-05-24T08:27:35.768Z,49.88
2023-05-24T08:30:04.371Z,49.66
2023-05-24T08:32:32.347Z,48.57
2023-05-24T08:35:17.587Z,47.31
2023-05-24T08:37:47.438Z,46.41
2023-05-24T08:40:14.444Z,46.40
2023-05-24T08:42:41.817Z,47.24
2023-05-24T08:45:12.404Z,47.66
2023-05-24T08:47:39.919Z,48.27
2023-05-24T08:50:08.584Z,48.56
2023-05-24T08:52:36.632Z,50.11
2023-05-24T08:55:07.449Z,49.57
2023-05-24T08:57:39.925Z,47.86
2023-05-24T09:00:12.739Z,49.67
2023-05-24T09:02:42.119Z,48.89
2023-05-24T09:05:14.346Z,47.34
2023-05-24T09:07:44.288Z,47.67
2023-05-24T09:10:11.791Z,48.10
2023-05-24T09:12:40.678Z,47.87
2023-05-24T09:15:09.003Z,48.69
2023-05-24T09:17:37.948Z,47.50
2023-05-24T09:20:08.973Z,47.18
2023-05-24T09:22:40.810Z,47.38
2023-05-24T09:25:11.005Z,47.61
2023-05-24T09:27:38.517Z,48.32
2023-05-24T09:30:10.298Z,48.45
2023-05-24T09:32:38.006Z,48.14
2023-05-24T09:35:09.505Z,47.12
2023-05-24T09:37:38.525Z,46.07
2023-05-24T09:40:07.256Z,45.11
2023-05-24T09:42:34.220Z,44.82
2023-05-24T09:45:12.374Z,43.95
2023-05-24T09:47:41.929Z,44.67
2023-05-24T09:50:18.052Z,45.22
2023-05-24T09:52:45.556Z,46.64
2023-05-24T09:55:20.680Z,46.52
2023-05-24T09:58:08.134Z,46.86
2023-05-24T10:00:40.158Z,46.86
2023-05-24T10:03:11.179Z,47.25
2023-05-24T10:05:42.740Z,46.13
2023-05-24T10:08:10.701Z,45.43
2023-05-24T10:10:37.956Z,44.83
2023-05-24T10:13:05.370Z,45.54
2023-05-24T10:15:32.285Z,45.89
2023-05-24T10:18:10.433Z,45.18
2023-05-24T10:20:41.543Z,43.95
2023-05-24T10:23:11.086Z,43.79
2023-05-24T10:25:48.246Z,44.52
2023-05-24T10:28:16.397Z,44.75
2023-05-24T10:30:59.465Z,45.05
2023-05-24T10:33:26.652Z,45.63
2023-05-24T10:35:54.700Z,44.52
2023-05-24T10:38:24.458Z,44.40
2023-05-24T10:40:52.130Z,44.68
2023-05-24T10:43:19.536Z,44.88
2023-05-24T10:45:51.679Z,44.97
2023-05-24T10:48:24.894Z,46.25
2023-05-24T10:50:52.344Z,46.82
2023-05-24T10:53:22.634Z,45.58
2023-05-24T10:55:55.673Z,45.67
2023-05-24T10:58:30.626Z,44.90
2023-05-24T11:00:57.653Z,42.91
2023-05-24T11:03:25.263Z,43.07
2023-05-24T11:05:54.948Z,41.43
2023-05-24T11:08:35.833Z,40.42
2023-05-24T11:13:47.699Z,38.67
2023-05-24T11:16:37.337Z,39.00
2023-05-24T11:19:34.314Z,41.09
2023-05-24T11:22:07.896Z,40.71
2023-05-24T11:24:35.226Z,41.18
2023-05-24T11:27:03.552Z,40.52
2023-05-24T11:29:31.249Z,39.13
2023-05-24T11:32:05.304Z,39.38
2023-05-24T11:34:33.511Z,39.59
2023-05-24T11:37:01.877Z,38.23
2023-05-24T11:39:34.362Z,38.89
2023-05-24T11:42:04.820Z,39.06
2023-05-24T11:44:34.580Z,38.79
2023-05-24T11:47:03.312Z,38.72
2023-05-24T11:49:30.518Z,39.50
2023-05-24T11:51:59.264Z,38.89
2023-05-24T11:54:28.266Z,38.54
2023-05-24T11:56:55.650Z,38.70
2023-05-24T11:59:27.799Z,39.21
2023-05-24T12:02:06.060Z,38.46
2023-05-24T12:04:34.625Z,39.78
2023-05-24T12:07:02.155Z,39.54
2023-05-24T12:09:29.380Z,40.04
2023-05-24T12:11:58.211Z,39.89
2023-05-24T12:14:31.277Z,38.85
2023-05-24T12:16:58.929Z,38.59
2023-05-24T12:19:33.495Z,39.46
2023-05-24T12:22:06.693Z,38.24
2023-05-24T12:24:34.281Z,39.83
2023-05-24T12:27:07.553Z,39.39
2023-05-24T12:29:41.305Z,38.63
2023-05-24T12:32:14.758Z,39.26
2023-05-24T12:34:44.040Z,38.26
2023-05-24T12:37:13.330Z,37.87
2023-05-24T12:39:43.114Z,38.87
2023-05-24T12:42:12.558Z,39.50
2023-05-24T12:44:40.252Z,36.52
2023-05-24T12:47:08.807Z,34.70
2023-05-24T12:49:36.581Z,36.40
2023-05-24T12:52:04.027Z,37.86
2023-05-24T12:54:31.304Z,38.15
2023-05-24T12:57:00.462Z,37.76
2023-05-24T12:59:28.602Z,38.60
2023-05-24T13:01:56.048Z,39.43
2023-05-24T13:04:26.084Z,39.82
2023-05-24T13:06:53.130Z,39.51
2023-05-24T13:09:22.432Z,38.44
2023-05-24T13:11:49.569Z,40.67
2023-05-24T13:14:17.032Z,41.50
2023-05-24T13:16:44.532Z,40.01
2023-05-24T13:19:12.416Z,39.26
2023-05-24T13:21:39.960Z,38.70
2023-05-24T13:24:07.755Z,38.83
2023-05-24T13:26:38.191Z,39.62
2023-05-24T13:31:40.696Z,38.83
2023-05-24T13:34:09.220Z,38.19
2023-05-24T13:36:36.434Z,38.53
2023-05-24T13:39:13.914Z,38.72
2023-05-24T13:41:42.518Z,37.64
2023-05-24T13:44:10.158Z,39.78
2023-05-24T13:46:38.290Z,39.77
2023-05-24T13:49:06.043Z,41.31
2023-05-24T13:51:33.465Z,40.31
2023-05-24T13:54:01.147Z,41.08
2023-05-24T13:56:34.155Z,40.63
2023-05-24T13:59:03.550Z,40.04
2023-05-24T14:01:31.233Z,39.80
2023-05-24T14:03:58.791Z,39.02
2023-05-24T14:06:25.859Z,38.19
2023-05-24T14:08:53.355Z,37.56
2023-05-24T14:11:20.326Z,37.28
2023-05-24T14:16:19.700Z,33.16
2023-05-24T14:18:48.968Z,34.51
2023-05-24T14:21:18.379Z,35.64
2023-05-24T14:23:45.303Z,35.82
2023-05-24T14:26:12.172Z,34.43
2023-05-24T14:28:39.283Z,35.76
2023-05-24T14:31:06.408Z,36.20
2023-05-24T14:33:33.386Z,37.14
2023-05-24T14:36:00.430Z,36.96
2023-05-24T14:38:28.008Z,36.98
2023-05-24T14:40:56.939Z,36.16
2023-05-24T14:43:23.867Z,35.85
2023-05-24T14:45:50.820Z,35.30
2023-05-24T14:48:17.895Z,35.83
2023-05-24T14:50:44.890Z,36.82
2023-05-24T14:53:12.739Z,36.93
2023-05-24T14:55:42.156Z,36.62
2023-05-24T14:58:11.630Z,36.94
2023-05-24T15:00:40.135Z,36.10
2023-05-24T15:03:08.146Z,34.82
2023-05-24T15:05:36.356Z,34.71
2023-05-24T15:08:04.966Z,33.68
2023-05-24T15:10:31.974Z,32.09
2023-05-24T15:12:58.984Z,32.83
2023-05-24T15:15:25.864Z,32.18
2023-05-24T15:17:52.751Z,34.44
2023-05-24T15:20:19.912Z,32.77
2023-05-24T15:22:46.887Z,34.23
2023-05-24T15:25:13.819Z,34.13
2023-05-24T15:27:40.758Z,32.87
2023-05-24T15:30:08.312Z,33.74
2023-05-24T15:32:35.272Z,34.75
2023-05-24T15:35:02.543Z,33.32
2023-05-24T15:37:29.443Z,32.31
2023-05-24T15:39:56.367Z,32.65
2023-05-24T15:42:24.735Z,32.05
2023-05-24T15:44:51.807Z,31.31
2023-05-24T15:47:21.911Z,30.42
2023-05-24T15:49:49.823Z,31.25
2023-05-24T15:52:17.082Z,32.03
2023-05-24T15:54:44.132Z,31.00
2023-05-24T15:57:11.196Z,30.91
2023-05-24T15:59:38.708Z,30.98
2023-05-24T16:02:09.341Z,31.56
2023-05-24T16:04:36.375Z,31.48
2023-05-24T16:07:03.374Z,34.45
2023-05-24T16:09:30.501Z,37.12
2023-05-24T16:11:57.428Z,35.43
2023-05-24T16:14:24.424Z,35.58
2023-05-24T16:16:51.356Z,35.61
2023-05-24T16:19:18.474Z,37.48
2023-05-24T16:21:45.767Z,38.21
2023-05-24T16:24:12.645Z,38.66
2023-05-24T16:26:39.571Z,39.85
2023-05-24T16:29:07.112Z,41.44
2023-05-24T16:31:34.257Z,40.32
2023-05-24T16:34:01.259Z,38.55
2023-05-24T16:36:28.293Z,38.53
2023-05-24T16:38:55.193Z,38.70
2023-05-24T16:41:22.200Z,38.95
2023-05-24T16:43:49.313Z,39.76
2023-05-24T16:46:16.313Z,39.89
2023-05-24T16:48:43.234Z,40.52
2023-05-24T16:51:10.377Z,41.98
2023-05-24T16:53:37.291Z,40.67
2023-05-24T16:56:04.244Z,41.22
2023-05-24T16:58:31.566Z,41.50
2023-05-24T17:00:58.930Z,41.48
2023-05-24T17:03:30.101Z,41.29
2023-05-24T17:06:03.542Z,42.51
2023-05-24T17:08:37.281Z,42.97
2023-05-24T17:11:05.391Z,42.77
2023-05-24T17:13:33.262Z,42.55
2023-05-24T17:16:00.809Z,43.30
2023-05-24T17:18:28.414Z,44.29
2023-05-24T17:21:02.951Z,44.16
2023-05-24T17:23:36.480Z,44.09
2023-05-24T17:26:04.698Z,44.61
2023-05-24T17:28:34.528Z,45.11
2023-05-24T17:31:02.103Z,46.25
2023-05-24T17:33:31.488Z,46.18
2023-05-24T17:36:02.549Z,45.83
2023-05-24T17:38:32.888Z,46.63
2023-05-24T17:40:59.995Z,46.45
2023-05-24T17:43:32.618Z,47.98
2023-05-24T17:46:04.204Z,46.81
2023-05-24T17:48:32.604Z,47.70
2023-05-24T17:51:01.090Z,47.42
2023-05-24T17:53:33.452Z,47.19
2023-05-24T17:56:01.834Z,48.52
2023-05-24T17:58:35.547Z,48.30
2023-05-24T18:01:05.241Z,47.37
2023-05-24T18:03:33.560Z,48.47
2023-05-24T18:06:01.181Z,48.80
2023-05-24T18:08:28.196Z,48.82
2023-05-24T18:10:55.068Z,48.30
2023-05-24T18:13:22.151Z,48.04
2023-05-24T18:15:50.335Z,48.51
2023-05-24T18:18:17.686Z,48.52
2023-05-24T18:20:44.620Z,48.72
2023-05-24T18:23:11.891Z,48.57
2023-05-24T18:25:38.844Z,48.92
2023-05-24T18:28:05.822Z,48.66
2023-05-24T18:30:32.722Z,48.38
2023-05-24T18:33:07.160Z,49.57
2023-05-24T18:35:35.032Z,50.09
2023-05-24T18:38:01.896Z,51.62
2023-05-24T18:40:28.812Z,51.67
2023-05-24T18:42:55.702Z,52.35
2023-05-24T18:45:23.018Z,52.84
2023-05-24T18:47:49.907Z,52.89
2023-05-24T18:50:17.134Z,53.29
2023-05-24T18:52:44.131Z,54.22
2023-05-24T18:55:11.074Z,54.33
2023-05-24T18:57:38.560Z,54.52
2023-05-24T19:00:07.395Z,54.98
2023-05-24T19:02:38.548Z,55.05
2023-05-24T19:05:07.792Z,55.40
2023-05-24T19:07:36.045Z,55.63
2023-05-24T19:10:04.126Z,55.97
2023-05-24T19:12:31.284Z,56.10
2023-05-24T19:14:58.501Z,56.34
2023-05-24T19:17:25.752Z,56.55
2023-05-24T19:19:52.781Z,56.94
2023-05-24T19:22:19.939Z,57.19
2023-05-24T19:24:46.985Z,56.86
2023-05-24T19:27:13.980Z,57.38
2023-05-24T19:29:41.248Z,57.57
2023-05-24T19:32:08.909Z,57.91
2023-05-24T19:34:37.316Z,57.88
2023-05-24T19:37:04.659Z,57.96
2023-05-24T19:39:31.601Z,57.84
2023-05-24T19:41:58.526Z,58.28
2023-05-24T19:44:25.514Z,58.26
2023-05-24T19:46:52.363Z,59.07
2023-05-24T19:49:19.368Z,58.63
2023-05-24T19:51:46.344Z,58.46
2023-05-24T19:54:13.764Z,58.06
2023-05-24T19:56:40.665Z,58.35
2023-05-24T19:59:07.629Z,58.75
2023-05-24T20:01:34.619Z,58.56
2023-05-24T20:04:01.783Z,58.43
2023-05-24T20:06:29.563Z,58.36
2023-05-24T20:08:58.775Z,58.09
2023-05-24T20:11:26.592Z,58.02
2023-05-24T20:13:53.508Z,58.27
2023-05-24T20:16:20.501Z,58.19
2023-05-24T20:18:47.464Z,57.75
2023-05-24T20:21:15.285Z,57.62
2023-05-24T20:23:42.292Z,57.78
2023-05-24T20:26:09.265Z,57.07
2023-05-24T20:28:36.201Z,57.16
2023-05-24T20:31:03.377Z,57.20
2023-05-24T20:33:30.302Z,56.97
2023-05-24T20:35:58.264Z,56.56
2023-05-24T20:38:25.144Z,56.50
2023-05-24T20:40:52.001Z,56.13
2023-05-24T20:43:18.861Z,56.51
2023-05-24T20:45:46.087Z,56.53
2023-05-24T20:48:13.273Z,56.43
2023-05-24T20:50:40.241Z,56.94
2023-05-24T20:53:07.221Z,56.39
2023-05-24T20:55:34.145Z,56.37
2023-05-24T20:58:01.051Z,56.10
2023-05-24T21:00:27.954Z,54.64
2023-05-24T21:02:54.857Z,54.70
2023-05-24T21:05:21.923Z,54.54
2023-05-24T21:07:48.822Z,54.90
2023-05-24T21:10:18.603Z,54.66
2023-05-24T21:12:46.204Z,54.58
2023-05-24T21:15:13.226Z,55.06
2023-05-24T21:17:40.146Z,54.38
2023-05-24T21:20:07.743Z,54.46
2023-05-24T21:22:34.853Z,54.54
2023-05-24T21:25:01.948Z,54.62
2023-05-24T21:27:28.904Z,54.77
2023-05-24T21:29:55.947Z,54.27
2023-05-24T21:32:22.833Z,54.58
2023-05-24T21:34:49.919Z,54.76
2023-05-24T21:37:17.543Z,55.17
2023-05-24T21:39:44.634Z,55.53
2023-05-24T21:42:11.626Z,55.24
2023-05-24T21:44:38.519Z,55.08
2023-05-24T21:47:05.709Z,54.79
2023-05-24T21:49:32.548Z,55.31
2023-05-24T21:51:59.508Z,54.44
2023-05-24T21:54:26.405Z,54.65
2023-05-24T21:56:53.315Z,54.79
2023-05-24T21:59:21.363Z,54.36
2023-05-24T22:01:48.723Z,54.06
2023-05-24T22:04:15.975Z,54.03
2023-05-24T22:06:45.864Z,53.96
2023-05-24T22:09:13.669Z,54.03
2023-05-24T22:11:43.206Z,53.83
2023-05-24T22:14:10.878Z,53.67
2023-05-24T22:16:38.078Z,53.70
2023-05-24T22:19:14.466Z,53.73
2023-05-24T22:21:42.815Z,53.95
2023-05-24T22:24:10.623Z,53.63
2023-05-24T22:26:38.227Z,53.27
2023-05-24T22:29:05.247Z,53.20
2023-05-24T22:31:36.231Z,53.72
2023-05-24T22:34:03.413Z,53.97
2023-05-24T22:36:33.814Z,54.39
2023-05-24T22:39:01.784Z,53.32
2023-05-24T22:41:29.059Z,53.02
2023-05-24T22:43:57.213Z,52.96
2023-05-24T22:46:24.763Z,53.54
2023-05-24T22:48:52.350Z,54.04
2023-05-24T22:51:20.481Z,53.77
2023-05-24T22:53:48.295Z,54.33
2023-05-24T22:56:15.824Z,53.77
2023-05-24T22:58:42.841Z,53.46
2023-05-24T23:01:09.791Z,53.31
2023-05-24T23:03:36.757Z,53.67
2023-05-24T23:06:04.515Z,53.60
2023-05-24T23:08:32.872Z,53.64
2023-05-24T23:11:10.059Z,54.17
2023-05-24T23:13:38.012Z,53.55
2023-05-24T23:16:05.461Z,54.21
2023-05-24T23:18:32.945Z,54.33
2023-05-24T23:21:03.025Z,53.61
2023-05-24T23:23:30.015Z,53.70
2023-05-24T23:25:56.896Z,53.41
2023-05-24T23:28:23.766Z,53.82
2023-05-24T23:30:50.808Z,53.77
2023-05-24T23:33:17.717Z,54.39
2023-05-24T23:35:44.997Z,54.47
2023-05-24T23:38:13.669Z,54.28
2023-05-24T23:40:40.872Z,54.72
2023-05-24T23:43:07.838Z,54.05
2023-05-24T23:45:34.928Z,54.26
2023-05-24T23:48:02.325Z,54.62
2023-05-24T23:50:30.283Z,54.04
2023-05-24T23:52:59.898Z,54.32
2023-05-24T23:55:26.784Z,54.48
2023-05-24T23:57:53.895Z,54.53
